CYYJ/YYJ METAR and TAF weather

Enter ICAO airport designator
Station Type Date Time Source
CYYJ METAR 2022/09/26 09:00 UTC NOAA

CYYJ 260900Z 25005KT 30SM FEW240 11/09 A3002 RMK CI2 SLP169


Station Type Date Time Source
CYYJ Decoded METAR 2022/09/26 09:00 UTC NOAA

Victoria Int. Airport, B. C., Canada (CYYJ) 48-39N 123-26W 19M
Sep 26, 2022 - 05:00 AM EDT / 2022.09.26 0900 UTC
Wind: from the WSW (250 degrees) at 6 MPH (5 KT):0
Visibility: 30 mile(s):0
Sky conditions: mostly clear
Temperature: 51 F (11 C)
Dew Point: 48 F (9 C)
Relative Humidity: 87%
Pressure (altimeter): 30.02 in. Hg (1016 hPa)
ob: CYYJ 260900Z 25005KT 30SM FEW240 11/09 A3002 RMK CI2 SLP169
cycle: 9

Station Type Date Time Source
CYYJ TAF 2022/09/26 06:42 UTC NOAA

TAF CYYJ 260540Z 2606/2706 VRB03KT P6SM FEW240
BECMG 2616/2618 07005KT
RMK NXT FCST BY 261200Z

Example: see airport list